createdAt,value
2018-05-17T00:00:26.791Z,989.97
2018-05-17T00:01:33.603Z,989.92
2018-05-17T00:02:40.347Z,989.93
2018-05-17T00:03:47.067Z,989.94
2018-05-17T00:04:53.798Z,989.89
2018-05-17T00:06:00.516Z,989.98
2018-05-17T00:07:07.393Z,989.88
2018-05-17T00:08:14.495Z,989.84
2018-05-17T00:09:21.223Z,989.86
2018-05-17T00:10:27.964Z,989.87
2018-05-17T00:11:34.710Z,989.95
2018-05-17T00:12:41.411Z,989.92
2018-05-17T00:13:48.222Z,990.00
2018-05-17T00:14:55.008Z,990.00
2018-05-17T00:16:01.731Z,990.01
2018-05-17T00:17:08.475Z,990.00
2018-05-17T00:18:15.315Z,990.08
2018-05-17T00:19:22.016Z,990.05
2018-05-17T00:20:28.723Z,990.09
2018-05-17T00:21:35.474Z,990.09
2018-05-17T00:22:42.224Z,990.09
2018-05-17T00:23:49.042Z,990.13
2018-05-17T00:24:55.786Z,990.13
2018-05-17T00:26:02.528Z,990.09
2018-05-17T00:27:09.286Z,990.11
2018-05-17T00:28:16.110Z,990.09
2018-05-17T00:29:22.853Z,990.07
2018-05-17T00:30:29.589Z,990.07
2018-05-17T00:31:36.333Z,990.08
2018-05-17T00:32:43.137Z,990.07
2018-05-17T00:33:49.911Z,990.10
2018-05-17T00:34:56.667Z,990.05
2018-05-17T00:36:03.398Z,990.11
2018-05-17T00:37:10.191Z,990.17
2018-05-17T00:38:16.959Z,990.06
2018-05-17T00:39:23.740Z,990.16
2018-05-17T00:40:30.450Z,990.07
2018-05-17T00:41:37.235Z,990.16
2018-05-17T00:42:43.982Z,990.11
2018-05-17T00:43:50.755Z,990.11
2018-05-17T00:44:57.468Z,990.12
2018-05-17T00:46:04.299Z,990.20
2018-05-17T00:47:11.054Z,990.21
2018-05-17T00:48:17.826Z,990.15
2018-05-17T00:49:24.566Z,990.14
2018-05-17T00:50:31.361Z,990.12
2018-05-17T00:51:38.356Z,990.26
2018-05-17T00:52:45.147Z,990.13
2018-05-17T00:53:52.068Z,990.11
2018-05-17T00:54:58.810Z,990.12
2018-05-17T00:56:05.623Z,990.10
2018-05-17T00:57:12.376Z,990.13
2018-05-17T00:58:19.144Z,990.12
2018-05-17T00:59:25.858Z,990.10
2018-05-17T01:00:32.659Z,990.05
2018-05-17T01:01:39.398Z,990.15
2018-05-17T01:02:46.188Z,990.08
2018-05-17T01:03:52.991Z,990.10
2018-05-17T01:05:00.167Z,990.10
2018-05-17T01:06:06.909Z,990.09
2018-05-17T01:07:13.654Z,990.09
2018-05-17T01:08:20.563Z,990.15
2018-05-17T01:09:27.317Z,990.04
2018-05-17T01:10:34.048Z,990.07
2018-05-17T01:11:40.820Z,990.08
2018-05-17T01:12:47.571Z,990.06
2018-05-17T01:13:54.415Z,990.10
2018-05-17T01:15:01.532Z,990.07
2018-05-17T01:16:07.907Z,990.01
2018-05-17T01:17:14.699Z,990.03
2018-05-17T01:18:21.442Z,990.16
2018-05-17T01:19:28.198Z,990.18
2018-05-17T01:20:34.931Z,990.18
2018-05-17T01:21:41.708Z,990.15
2018-05-17T01:22:48.535Z,990.02
2018-05-17T01:23:55.283Z,990.12
2018-05-17T01:25:02.030Z,990.14
2018-05-17T01:26:08.768Z,990.05
2018-05-17T01:27:15.599Z,990.06
2018-05-17T01:28:22.495Z,990.09
2018-05-17T01:29:29.267Z,990.09
2018-05-17T01:30:36.021Z,990.07
2018-05-17T01:31:42.871Z,990.04
2018-05-17T01:32:49.599Z,990.06
2018-05-17T01:33:56.451Z,990.11
2018-05-17T01:35:03.290Z,990.08
2018-05-17T01:36:09.947Z,990.11
2018-05-17T01:37:17.011Z,990.11
2018-05-17T01:38:23.518Z,990.07
2018-05-17T01:39:30.364Z,990.11
2018-05-17T01:40:37.100Z,990.10
2018-05-17T01:41:43.947Z,990.04
2018-05-17T01:42:50.683Z,990.06
2018-05-17T01:43:57.759Z,989.97
2018-05-17T01:45:04.496Z,990.08
2018-05-17T01:46:11.232Z,990.06
2018-05-17T01:47:17.974Z,990.03
2018-05-17T01:48:24.806Z,990.06
2018-05-17T01:49:31.544Z,990.12
2018-05-17T01:50:38.599Z,990.06
2018-05-17T01:51:45.333Z,990.07
2018-05-17T01:52:52.076Z,990.16
2018-05-17T01:53:58.842Z,990.15
2018-05-17T01:55:05.687Z,990.19
2018-05-17T01:56:12.440Z,990.19
2018-05-17T01:57:19.173Z,990.09
2018-05-17T01:58:25.895Z,990.14
2018-05-17T01:59:32.642Z,990.19
2018-05-17T02:00:39.426Z,990.18
2018-05-17T02:01:46.183Z,990.25
2018-05-17T02:02:52.919Z,990.21
2018-05-17T02:03:59.730Z,990.25
2018-05-17T02:05:06.520Z,990.21
2018-05-17T02:06:13.288Z,990.25
2018-05-17T02:07:20.019Z,990.17
2018-05-17T02:08:26.767Z,990.24
2018-05-17T02:09:33.596Z,990.18
2018-05-17T02:10:40.436Z,990.17
2018-05-17T02:11:47.232Z,990.17
2018-05-17T02:12:54.009Z,990.21
2018-05-17T02:14:00.755Z,990.27
2018-05-17T02:15:07.546Z,990.25
2018-05-17T02:16:14.312Z,990.19
2018-05-17T02:17:21.082Z,990.23
2018-05-17T02:18:27.852Z,990.23
2018-05-17T02:19:34.608Z,990.28
2018-05-17T02:20:41.664Z,990.23
2018-05-17T02:21:48.936Z,990.25
2018-05-17T02:22:55.546Z,990.33
2018-05-17T02:24:02.306Z,990.34
2018-05-17T02:25:09.124Z,990.38
2018-05-17T02:26:15.886Z,990.37
2018-05-17T02:27:22.673Z,990.31
2018-05-17T02:28:29.415Z,990.37
2018-05-17T02:29:36.222Z,990.35
2018-05-17T02:30:43.035Z,990.31
2018-05-17T02:31:49.807Z,990.27
2018-05-17T02:32:56.627Z,990.37
2018-05-17T02:34:03.447Z,990.36
2018-05-17T02:35:10.228Z,990.36
2018-05-17T02:36:17.043Z,990.40
2018-05-17T02:37:23.786Z,990.36
2018-05-17T02:38:30.605Z,990.46
2018-05-17T02:39:37.500Z,990.43
2018-05-17T02:40:44.247Z,990.41
2018-05-17T02:41:51.031Z,990.51
2018-05-17T02:42:57.899Z,990.48
2018-05-17T02:44:04.751Z,990.51
2018-05-17T02:45:11.543Z,990.46
2018-05-17T02:46:18.290Z,990.48
2018-05-17T02:47:25.031Z,990.55
2018-05-17T02:48:32.458Z,990.53
2018-05-17T02:49:38.580Z,990.53
2018-05-17T02:50:45.362Z,990.57
2018-05-17T02:51:52.134Z,990.53
2018-05-17T02:52:58.929Z,990.49
2018-05-17T02:54:05.759Z,990.56
2018-05-17T02:55:12.557Z,990.59
2018-05-17T02:56:19.369Z,990.60
2018-05-17T02:57:26.199Z,990.52
2018-05-17T02:58:32.989Z,990.63
2018-05-17T02:59:39.781Z,990.61
2018-05-17T03:00:46.621Z,990.60
2018-05-17T03:01:53.328Z,990.59
2018-05-17T03:03:00.059Z,990.64
2018-05-17T03:04:06.855Z,990.60
2018-05-17T03:05:13.715Z,990.64
2018-05-17T03:06:20.487Z,990.71
2018-05-17T03:07:27.243Z,990.70
2018-05-17T03:08:34.011Z,990.58
2018-05-17T03:09:40.806Z,990.65
2018-05-17T03:10:47.568Z,990.60
2018-05-17T03:11:54.342Z,990.68
2018-05-17T03:13:01.056Z,990.63
2018-05-17T03:14:07.865Z,990.61
2018-05-17T03:15:14.599Z,990.65
2018-05-17T03:16:21.346Z,990.62
2018-05-17T03:17:28.099Z,990.68
2018-05-17T03:18:34.978Z,990.62
2018-05-17T03:19:41.811Z,990.54
2018-05-17T03:20:48.546Z,990.69
2018-05-17T03:21:55.298Z,990.61
2018-05-17T03:23:02.015Z,990.58
2018-05-17T03:24:08.770Z,990.62
2018-05-17T03:25:15.535Z,990.59
2018-05-17T03:26:22.231Z,990.65
2018-05-17T03:27:29.167Z,990.64
2018-05-17T03:28:36.155Z,990.69
2018-05-17T03:29:43.168Z,990.69
2018-05-17T03:30:49.790Z,990.77
2018-05-17T03:31:56.586Z,990.79
2018-05-17T03:33:03.355Z,990.77
2018-05-17T03:34:10.125Z,990.78
2018-05-17T03:35:16.855Z,990.78
2018-05-17T03:36:23.582Z,990.73
2018-05-17T03:37:30.311Z,990.72
2018-05-17T03:38:37.071Z,990.77
2018-05-17T03:39:43.847Z,990.80
2018-05-17T03:40:50.694Z,990.79
2018-05-17T03:41:57.723Z,990.81
2018-05-17T03:43:04.567Z,990.83
2018-05-17T03:44:11.431Z,990.86
2018-05-17T03:45:18.148Z,990.79
2018-05-17T03:46:24.900Z,990.80
2018-05-17T03:47:31.654Z,990.79
2018-05-17T03:48:38.426Z,990.83
2018-05-17T03:49:45.306Z,990.81
2018-05-17T03:50:52.046Z,990.90
2018-05-17T03:51:58.817Z,990.82
2018-05-17T03:53:05.606Z,990.92
2018-05-17T03:54:12.370Z,990.81
2018-05-17T03:55:19.183Z,990.86
2018-05-17T03:56:25.922Z,990.87
2018-05-17T03:57:32.655Z,990.77
2018-05-17T03:58:39.386Z,990.80
2018-05-17T03:59:46.239Z,990.80
2018-05-17T04:00:52.953Z,990.82
2018-05-17T04:01:59.795Z,990.78
2018-05-17T04:03:06.783Z,990.77
2018-05-17T04:04:13.727Z,990.82
2018-05-17T04:05:25.302Z,990.80
2018-05-17T04:06:32.294Z,990.75
2018-05-17T04:07:39.099Z,990.88
2018-05-17T04:08:45.923Z,990.73
2018-05-17T04:09:52.655Z,990.77
2018-05-17T04:10:59.451Z,990.81
2018-05-17T04:12:06.143Z,990.79
2018-05-17T04:13:12.865Z,990.72
2018-05-17T04:14:19.838Z,990.77
2018-05-17T04:15:26.623Z,990.72
2018-05-17T04:16:33.599Z,990.71
2018-05-17T04:17:40.345Z,990.74
2018-05-17T04:18:47.043Z,990.72
2018-05-17T04:19:53.808Z,990.68
2018-05-17T04:21:00.899Z,990.71
2018-05-17T04:22:07.756Z,990.72
2018-05-17T04:23:14.483Z,990.73
2018-05-17T04:24:21.211Z,990.76
2018-05-17T04:25:27.939Z,990.71
2018-05-17T04:26:34.630Z,990.70
2018-05-17T04:27:41.395Z,990.71
2018-05-17T04:28:48.130Z,990.69
2018-05-17T04:29:54.921Z,990.65
2018-05-17T04:31:01.624Z,990.68
2018-05-17T04:32:08.398Z,990.69
2018-05-17T04:33:15.086Z,990.70
2018-05-17T04:34:21.797Z,990.76
2018-05-17T04:35:28.579Z,990.73
2018-05-17T04:36:35.300Z,990.74
2018-05-17T04:37:42.047Z,990.89
2018-05-17T04:38:48.804Z,990.82
2018-05-17T04:39:55.663Z,990.73
2018-05-17T04:41:02.482Z,990.78
2018-05-17T04:42:09.216Z,990.67
2018-05-17T04:43:15.930Z,990.81
2018-05-17T04:44:22.688Z,990.78
2018-05-17T04:45:29.493Z,990.78
2018-05-17T04:46:36.198Z,990.86
2018-05-17T04:47:42.986Z,990.76
2018-05-17T04:48:49.837Z,990.81
2018-05-17T04:49:56.589Z,990.83
2018-05-17T04:51:03.345Z,990.87
2018-05-17T04:52:10.203Z,990.82
2018-05-17T04:53:16.906Z,990.82
2018-05-17T04:54:23.705Z,990.86
2018-05-17T04:55:30.436Z,990.85
2018-05-17T04:56:37.211Z,990.90
2018-05-17T04:57:43.999Z,990.85
2018-05-17T04:58:51.011Z,990.87
2018-05-17T04:59:57.642Z,990.82
2018-05-17T05:01:04.422Z,990.84
2018-05-17T05:02:11.356Z,990.83
2018-05-17T05:03:18.139Z,990.86
2018-05-17T05:04:25.006Z,990.86
2018-05-17T05:05:31.766Z,990.89
2018-05-17T05:06:38.507Z,990.89
2018-05-17T05:07:45.390Z,990.84
2018-05-17T05:08:52.143Z,990.90
2018-05-17T05:09:59.753Z,990.86
2018-05-17T05:11:06.067Z,990.86
2018-05-17T05:12:12.799Z,990.87
2018-05-17T05:13:19.559Z,990.89
2018-05-17T05:14:26.295Z,990.88
2018-05-17T05:15:33.324Z,990.89
2018-05-17T05:16:40.164Z,990.92
2018-05-17T05:17:46.873Z,990.89
2018-05-17T05:18:54.108Z,990.96
2018-05-17T05:20:00.871Z,990.98
2018-05-17T05:21:07.994Z,990.96
2018-05-17T05:22:14.748Z,990.97
2018-05-17T05:23:21.518Z,991.02
2018-05-17T05:24:28.343Z,990.96
2018-05-17T05:25:35.095Z,990.90
2018-05-17T05:26:42.003Z,991.00
2018-05-17T05:27:48.742Z,990.98
2018-05-17T05:28:55.507Z,990.97
2018-05-17T05:30:02.315Z,991.06
2018-05-17T05:31:09.148Z,991.02
2018-05-17T05:32:16.597Z,990.95
2018-05-17T05:33:23.383Z,991.01
2018-05-17T05:34:30.371Z,991.05
2018-05-17T05:35:37.168Z,991.00
2018-05-17T05:36:43.956Z,991.06
2018-05-17T05:37:50.722Z,991.00
2018-05-17T05:38:57.540Z,991.05
2018-05-17T05:40:04.332Z,991.03
2018-05-17T05:41:12.246Z,991.00
2018-05-17T05:42:18.150Z,991.04
2018-05-17T05:43:25.030Z,991.01
2018-05-17T05:44:31.769Z,991.02
2018-05-17T05:45:39.300Z,990.98
2018-05-17T05:46:47.659Z,991.07
2018-05-17T05:47:52.411Z,991.06
2018-05-17T05:48:59.174Z,991.05
2018-05-17T05:50:05.890Z,991.07
2018-05-17T05:51:13.559Z,991.10
2018-05-17T05:52:19.298Z,991.10
2018-05-17T05:53:26.016Z,991.15
2018-05-17T05:54:33.103Z,991.10
2018-05-17T05:55:40.187Z,991.10
2018-05-17T05:56:46.459Z,991.14
2018-05-17T05:57:53.532Z,991.12
2018-05-17T05:59:00.406Z,991.13
2018-05-17T06:00:07.230Z,991.10
2018-05-17T06:01:13.999Z,991.13
2018-05-17T06:02:20.783Z,991.12
2018-05-17T06:03:27.746Z,991.15
2018-05-17T06:04:34.575Z,991.09
2018-05-17T06:05:41.399Z,991.20
2018-05-17T06:06:48.147Z,991.07
2018-05-17T06:07:54.939Z,991.11
2018-05-17T06:09:01.718Z,991.10
2018-05-17T06:10:08.574Z,991.17
2018-05-17T06:11:15.786Z,991.12
2018-05-17T06:12:22.539Z,991.19
2018-05-17T06:13:29.258Z,991.22
2018-05-17T06:14:40.763Z,991.22
2018-05-17T06:15:43.083Z,991.21
2018-05-17T06:16:49.848Z,991.31
2018-05-17T06:17:56.619Z,991.26
2018-05-17T06:19:03.444Z,991.26
2018-05-17T06:20:10.216Z,991.24
2018-05-17T06:21:16.998Z,991.26
2018-05-17T06:22:25.161Z,991.40
2018-05-17T06:23:31.039Z,991.32
2018-05-17T06:24:38.098Z,991.30
2018-05-17T06:25:44.612Z,991.32
2018-05-17T06:26:51.437Z,991.37
2018-05-17T06:27:58.268Z,991.38
2018-05-17T06:29:05.079Z,991.37
2018-05-17T06:30:11.820Z,991.39
2018-05-17T06:31:18.640Z,991.41
2018-05-17T06:32:25.528Z,991.43
2018-05-17T06:33:32.275Z,991.39
2018-05-17T06:34:39.050Z,991.45
2018-05-17T06:35:45.904Z,991.39
2018-05-17T06:36:53.922Z,991.45
2018-05-17T06:37:59.723Z,991.48
2018-05-17T06:39:06.588Z,991.48
2018-05-17T06:40:13.605Z,991.48
2018-05-17T06:41:20.369Z,991.45
2018-05-17T06:42:27.388Z,991.48
2018-05-17T06:43:34.123Z,991.46
2018-05-17T06:44:40.843Z,991.49
2018-05-17T06:45:47.617Z,991.41
2018-05-17T06:46:54.667Z,991.49
2018-05-17T06:48:01.631Z,991.54
2018-05-17T06:49:08.386Z,991.49
2018-05-17T06:50:15.383Z,991.53
2018-05-17T06:51:22.633Z,991.60
2018-05-17T06:52:29.915Z,991.47
2018-05-17T06:53:42.060Z,991.51
2018-05-17T06:54:42.819Z,991.50
2018-05-17T06:55:49.630Z,991.59
2018-05-17T06:56:56.472Z,991.50
2018-05-17T06:58:07.027Z,991.47
2018-05-17T06:59:10.481Z,991.60
2018-05-17T07:00:17.343Z,991.49
2018-05-17T07:01:24.129Z,991.57
2018-05-17T07:02:31.011Z,991.56
2018-05-17T07:03:37.768Z,991.57
2018-05-17T07:04:44.659Z,991.56
2018-05-17T07:05:51.474Z,991.50
2018-05-17T07:06:58.254Z,991.52
2018-05-17T07:08:05.078Z,991.58
2018-05-17T07:09:12.236Z,991.57
2018-05-17T07:10:19.258Z,991.57
2018-05-17T07:11:25.974Z,991.52
2018-05-17T07:12:32.703Z,991.58
2018-05-17T07:13:39.448Z,991.51
2018-05-17T07:14:46.178Z,991.53
2018-05-17T07:15:52.935Z,991.52
2018-05-17T07:16:59.690Z,991.52
2018-05-17T07:18:06.590Z,991.55
2018-05-17T07:19:13.194Z,991.55
2018-05-17T07:20:20.086Z,991.49
2018-05-17T07:21:26.915Z,991.53
2018-05-17T07:22:35.410Z,991.55
2018-05-17T07:23:40.674Z,991.52
2018-05-17T07:24:47.592Z,991.49
2018-05-17T07:25:55.874Z,991.51
2018-05-17T07:27:01.145Z,991.53
2018-05-17T07:28:08.000Z,991.49
2018-05-17T07:29:14.776Z,991.61
2018-05-17T07:30:21.538Z,991.53
2018-05-17T07:31:28.458Z,991.52
2018-05-17T07:32:35.367Z,991.52
2018-05-17T07:33:42.249Z,991.63
2018-05-17T07:34:49.028Z,991.62
2018-05-17T07:35:55.792Z,991.58
2018-05-17T07:37:02.599Z,991.64
2018-05-17T07:38:09.390Z,991.57
2018-05-17T07:39:16.246Z,991.58
2018-05-17T07:40:23.103Z,991.62
2018-05-17T07:41:29.867Z,991.68
2018-05-17T07:42:36.782Z,991.65
2018-05-17T07:43:43.542Z,991.61
2018-05-17T07:44:50.317Z,991.63
2018-05-17T07:45:57.146Z,991.55
2018-05-17T07:47:04.199Z,991.63
2018-05-17T07:48:11.224Z,991.63
2018-05-17T07:49:18.127Z,991.64
2018-05-17T07:50:24.893Z,991.69
2018-05-17T07:51:31.809Z,991.66
2018-05-17T07:52:38.628Z,991.61
2018-05-17T07:53:45.530Z,991.67
2018-05-17T07:54:52.383Z,991.68
2018-05-17T07:55:59.210Z,991.64
2018-05-17T07:57:06.003Z,991.67
2018-05-17T07:58:12.766Z,991.60
2018-05-17T07:59:19.653Z,991.58
2018-05-17T08:00:26.479Z,991.60
2018-05-17T08:01:33.182Z,991.67
2018-05-17T08:02:39.919Z,991.64
2018-05-17T08:03:46.670Z,991.68
2018-05-17T08:04:53.384Z,991.63
2018-05-17T08:06:00.168Z,991.61
2018-05-17T08:07:06.948Z,991.69
2018-05-17T08:08:13.784Z,991.72
2018-05-17T08:09:20.986Z,991.68
2018-05-17T08:10:27.751Z,991.73
2018-05-17T08:11:34.578Z,991.69
2018-05-17T08:12:41.364Z,991.71
2018-05-17T08:13:48.103Z,991.77
2018-05-17T08:14:54.921Z,991.80
2018-05-17T08:16:03.304Z,991.82
2018-05-17T08:17:08.561Z,991.80
2018-05-17T08:18:15.310Z,991.76
2018-05-17T08:19:22.074Z,991.75
2018-05-17T08:20:28.869Z,991.73
2018-05-17T08:21:35.678Z,991.77
2018-05-17T08:22:42.443Z,991.79
2018-05-17T08:23:49.243Z,991.76
2018-05-17T08:24:56.079Z,991.82
2018-05-17T08:26:02.927Z,991.82
2018-05-17T08:27:09.757Z,991.81
2018-05-17T08:28:16.559Z,991.83
2018-05-17T08:29:23.283Z,991.75
2018-05-17T08:30:30.362Z,991.75
2018-05-17T08:31:37.149Z,991.81
2018-05-17T08:32:43.943Z,991.82
2018-05-17T08:33:50.730Z,991.71
2018-05-17T08:34:57.691Z,991.79
2018-05-17T08:36:04.653Z,991.73
2018-05-17T08:37:11.378Z,991.76
2018-05-17T08:38:18.087Z,991.74
2018-05-17T08:39:24.854Z,991.70
2018-05-17T08:40:31.711Z,991.74
2018-05-17T08:41:39.232Z,991.73
2018-05-17T08:42:45.593Z,991.74
2018-05-17T08:43:52.259Z,991.70
2018-05-17T08:44:59.000Z,991.72
2018-05-17T08:46:05.786Z,991.75
2018-05-17T08:47:12.623Z,991.73
2018-05-17T08:48:19.364Z,991.74
2018-05-17T08:49:26.163Z,991.75
2018-05-17T08:50:32.924Z,991.71
2018-05-17T08:51:39.686Z,991.70
2018-05-17T08:52:46.497Z,991.72
2018-05-17T08:53:53.243Z,991.73
2018-05-17T08:54:59.992Z,991.63
2018-05-17T08:56:06.875Z,991.64
2018-05-17T08:57:13.673Z,991.68
2018-05-17T08:58:20.430Z,991.63
2018-05-17T08:59:27.243Z,991.67
2018-05-17T09:00:34.081Z,991.65
2018-05-17T09:01:40.851Z,991.73
2018-05-17T09:02:47.572Z,991.71
2018-05-17T09:03:54.302Z,991.65
2018-05-17T09:05:01.150Z,991.65
2018-05-17T09:06:08.001Z,991.72
2018-05-17T09:07:14.784Z,991.59
2018-05-17T09:08:21.511Z,991.72
2018-05-17T09:09:28.270Z,991.64
2018-05-17T09:10:35.036Z,991.61
2018-05-17T09:11:41.788Z,991.62
2018-05-17T09:12:48.487Z,991.60
2018-05-17T09:13:55.286Z,991.64
2018-05-17T09:15:01.986Z,991.64
2018-05-17T09:16:08.816Z,991.61
2018-05-17T09:17:15.597Z,991.68
2018-05-17T09:18:22.332Z,991.61
2018-05-17T09:19:29.139Z,991.61
2018-05-17T09:20:35.923Z,991.59
2018-05-17T09:21:42.759Z,991.64
2018-05-17T09:22:49.498Z,991.65
2018-05-17T09:23:56.222Z,991.59
2018-05-17T09:25:02.946Z,991.65
2018-05-17T09:26:09.671Z,991.68
2018-05-17T09:27:16.411Z,991.59
2018-05-17T09:28:23.216Z,991.66
2018-05-17T09:29:29.967Z,991.66
2018-05-17T09:30:36.675Z,991.63
2018-05-17T09:31:43.407Z,991.62
2018-05-17T09:32:50.092Z,991.66
2018-05-17T09:33:56.855Z,991.62
2018-05-17T09:35:03.672Z,991.58
2018-05-17T09:36:10.326Z,991.57
2018-05-17T09:37:17.072Z,991.59
2018-05-17T09:38:23.887Z,991.55
2018-05-17T09:39:30.642Z,991.55
2018-05-17T09:40:37.399Z,991.61
2018-05-17T09:41:44.132Z,991.67
2018-05-17T09:42:50.904Z,991.64
2018-05-17T09:43:57.638Z,991.64
2018-05-17T09:45:04.382Z,991.55
2018-05-17T09:46:11.096Z,991.67
2018-05-17T09:47:17.816Z,991.65
2018-05-17T09:48:24.555Z,991.69
2018-05-17T09:49:31.319Z,991.63
2018-05-17T09:50:38.003Z,991.64
2018-05-17T09:51:44.734Z,991.64
2018-05-17T09:52:51.583Z,991.67
2018-05-17T09:53:58.303Z,991.66
2018-05-17T09:55:05.118Z,991.62
2018-05-17T09:56:11.831Z,991.60
2018-05-17T09:57:18.576Z,991.62
2018-05-17T09:58:25.275Z,991.70
2018-05-17T09:59:32.004Z,991.68
2018-05-17T10:00:38.719Z,991.64
2018-05-17T10:01:45.690Z,991.63
2018-05-17T10:02:52.435Z,991.68
2018-05-17T10:03:59.163Z,991.69
2018-05-17T10:05:05.945Z,991.68
2018-05-17T10:06:12.699Z,991.62
2018-05-17T10:07:19.439Z,991.61
2018-05-17T10:08:26.324Z,991.59
2018-05-17T10:09:33.046Z,991.61
2018-05-17T10:10:39.758Z,991.60
2018-05-17T10:11:46.459Z,991.60
2018-05-17T10:12:53.198Z,991.61
2018-05-17T10:13:59.991Z,991.60
2018-05-17T10:15:06.705Z,991.53
2018-05-17T10:16:13.427Z,991.60
2018-05-17T10:17:20.135Z,991.50
2018-05-17T10:18:26.862Z,991.52
2018-05-17T10:19:33.619Z,991.58
2018-05-17T10:20:40.310Z,991.52
2018-05-17T10:21:47.185Z,991.53
2018-05-17T10:22:53.867Z,991.58
2018-05-17T10:24:00.643Z,991.52
2018-05-17T10:25:07.454Z,991.59
2018-05-17T10:26:14.210Z,991.49
2018-05-17T10:27:21.015Z,991.54
2018-05-17T10:28:27.789Z,991.60
2018-05-17T10:29:34.604Z,991.49
2018-05-17T10:30:41.222Z,991.52
2018-05-17T10:31:47.990Z,991.57
2018-05-17T10:32:54.755Z,991.54
2018-05-17T10:34:01.540Z,991.52
2018-05-17T10:35:08.376Z,991.61
2018-05-17T10:36:15.123Z,991.58
2018-05-17T10:37:21.861Z,991.62
2018-05-17T10:38:28.645Z,991.55
2018-05-17T10:39:35.412Z,991.59
2018-05-17T10:40:42.218Z,991.60
2018-05-17T10:41:49.144Z,991.54
2018-05-17T10:42:56.156Z,991.52
2018-05-17T10:44:02.933Z,991.48
2018-05-17T10:45:09.831Z,991.57
2018-05-17T10:46:16.913Z,991.63
2018-05-17T10:47:23.667Z,991.56
2018-05-17T10:48:30.443Z,991.56
2018-05-17T10:49:37.191Z,991.50
2018-05-17T10:50:43.907Z,991.55
2018-05-17T10:51:50.774Z,991.46
2018-05-17T10:52:57.530Z,991.51
2018-05-17T10:54:04.326Z,991.50
2018-05-17T10:55:11.139Z,991.59
2018-05-17T10:56:17.883Z,991.52
2018-05-17T10:57:24.650Z,991.53
2018-05-17T10:58:31.550Z,991.55
2018-05-17T10:59:38.316Z,991.59
2018-05-17T11:00:45.071Z,991.50
2018-05-17T11:01:51.779Z,991.52
2018-05-17T11:02:58.538Z,991.56
2018-05-17T11:04:05.336Z,991.61
2018-05-17T11:05:12.126Z,991.50
2018-05-17T11:06:18.915Z,991.55
2018-05-17T11:07:25.628Z,991.54
2018-05-17T11:08:32.403Z,991.55
2018-05-17T11:09:39.135Z,991.57
2018-05-17T11:10:45.922Z,991.57
2018-05-17T11:11:52.683Z,991.54
2018-05-17T11:12:59.401Z,991.53
2018-05-17T11:14:06.186Z,991.56
2018-05-17T11:15:12.944Z,991.49
2018-05-17T11:16:19.615Z,991.47
2018-05-17T11:17:26.371Z,991.52
2018-05-17T11:18:33.114Z,991.51
2018-05-17T11:19:39.955Z,991.49
2018-05-17T11:20:46.700Z,991.47
2018-05-17T11:21:53.447Z,991.56
2018-05-17T11:23:00.212Z,991.55
2018-05-17T11:24:06.972Z,991.47
2018-05-17T11:25:13.678Z,991.49
2018-05-17T11:26:20.426Z,991.51
2018-05-17T11:27:27.154Z,991.49
2018-05-17T11:28:34.179Z,991.47
2018-05-17T11:29:40.871Z,991.58
2018-05-17T11:30:47.569Z,991.48
2018-05-17T11:31:54.603Z,991.52
2018-05-17T11:33:01.396Z,991.53
2018-05-17T11:34:08.155Z,991.58
2018-05-17T11:35:14.906Z,991.61
2018-05-17T11:36:21.639Z,991.51
2018-05-17T11:37:28.394Z,991.44
2018-05-17T11:38:35.218Z,991.48
2018-05-17T11:39:41.962Z,991.40
2018-05-17T11:40:48.853Z,991.46
2018-05-17T11:41:55.615Z,991.46
2018-05-17T11:43:02.347Z,991.39
2018-05-17T11:44:09.131Z,991.43
2018-05-17T11:45:15.803Z,991.48
2018-05-17T11:46:22.739Z,991.53
2018-05-17T11:47:29.449Z,991.48
2018-05-17T11:48:36.312Z,991.45
2018-05-17T11:49:43.075Z,991.49
2018-05-17T11:50:49.833Z,991.52
2018-05-17T11:51:56.730Z,991.50
2018-05-17T11:53:03.434Z,991.53
2018-05-17T11:54:10.279Z,991.58
2018-05-17T11:55:17.087Z,991.54
2018-05-17T11:56:23.824Z,991.55
2018-05-17T11:57:30.543Z,991.46
2018-05-17T11:58:37.294Z,991.43
2018-05-17T11:59:44.115Z,991.54
2018-05-17T12:00:50.836Z,991.52
2018-05-17T12:01:57.901Z,991.45
2018-05-17T12:03:04.723Z,991.38
2018-05-17T12:04:11.472Z,991.35
2018-05-17T12:05:18.230Z,991.34
2018-05-17T12:06:25.683Z,991.43
2018-05-17T12:07:32.444Z,991.40
2018-05-17T12:08:39.185Z,991.51
2018-05-17T12:09:45.988Z,991.40
2018-05-17T12:10:52.743Z,991.45
2018-05-17T12:11:59.546Z,991.38
2018-05-17T12:13:06.280Z,991.41
2018-05-17T12:14:13.915Z,991.40
2018-05-17T12:15:20.147Z,991.40
2018-05-17T12:16:26.899Z,991.43
2018-05-17T12:17:33.638Z,991.33
2018-05-17T12:18:40.438Z,991.37
2018-05-17T12:19:47.147Z,991.33
2018-05-17T12:20:56.957Z,991.39
2018-05-17T12:22:00.722Z,991.42
2018-05-17T12:23:07.563Z,991.37
2018-05-17T12:24:14.223Z,991.35
2018-05-17T12:25:20.937Z,991.41
2018-05-17T12:26:27.806Z,991.38
2018-05-17T12:27:34.542Z,991.37
2018-05-17T12:28:41.262Z,991.35
2018-05-17T12:29:47.967Z,991.35
2018-05-17T12:30:54.762Z,991.42
2018-05-17T12:32:01.502Z,991.34
2018-05-17T12:33:08.237Z,991.39
2018-05-17T12:34:14.926Z,991.43
2018-05-17T12:35:21.678Z,991.34
2018-05-17T12:36:28.433Z,991.33
2018-05-17T12:37:35.139Z,991.41
2018-05-17T12:38:41.904Z,991.35
2018-05-17T12:39:48.639Z,991.39
2018-05-17T12:40:55.507Z,991.41
2018-05-17T12:42:02.267Z,991.34
2018-05-17T12:43:09.131Z,991.33
2018-05-17T12:44:15.893Z,991.39
2018-05-17T12:45:22.608Z,991.35
2018-05-17T12:46:29.334Z,991.44
2018-05-17T12:47:36.110Z,991.34
2018-05-17T12:48:42.802Z,991.40
2018-05-17T12:49:49.584Z,991.39
2018-05-17T12:50:56.288Z,991.40
2018-05-17T12:52:03.027Z,991.43
2018-05-17T12:53:09.750Z,991.44
2018-05-17T12:54:16.432Z,991.41
2018-05-17T12:55:23.130Z,991.41
2018-05-17T12:56:29.902Z,991.39
2018-05-17T12:57:36.622Z,991.48
2018-05-17T12:58:43.410Z,991.41
2018-05-17T12:59:50.106Z,991.43
2018-05-17T13:00:56.788Z,991.44
2018-05-17T13:02:03.596Z,991.42
2018-05-17T13:03:10.346Z,991.40
2018-05-17T13:04:17.163Z,991.31
2018-05-17T13:05:23.995Z,991.44
2018-05-17T13:06:30.715Z,991.35
2018-05-17T13:07:37.451Z,991.37
2018-05-17T13:08:44.155Z,991.38
2018-05-17T13:09:51.066Z,991.44
2018-05-17T13:10:57.805Z,991.47
2018-05-17T13:12:04.550Z,991.34
2018-05-17T13:13:11.267Z,991.43
2018-05-17T13:14:17.968Z,991.34
2018-05-17T13:15:24.746Z,991.37
2018-05-17T13:16:31.459Z,991.39
2018-05-17T13:17:38.145Z,991.33
2018-05-17T13:18:44.941Z,991.37
2018-05-17T13:19:51.787Z,991.42
2018-05-17T13:20:58.476Z,991.35
2018-05-17T13:22:05.791Z,991.28
2018-05-17T13:23:12.542Z,991.32
2018-05-17T13:24:19.334Z,991.27
2018-05-17T13:25:26.079Z,991.29
2018-05-17T13:26:32.954Z,991.33
2018-05-17T13:27:39.842Z,991.29
2018-05-17T13:28:46.831Z,991.26
2018-05-17T13:29:53.571Z,991.22
2018-05-17T13:31:00.314Z,991.26
2018-05-17T13:32:07.139Z,991.27
2018-05-17T13:33:13.859Z,991.32
2018-05-17T13:34:20.604Z,991.32
2018-05-17T13:35:27.311Z,991.24
2018-05-17T13:36:34.073Z,991.34
2018-05-17T13:37:40.811Z,991.31
2018-05-17T13:38:47.899Z,991.27
2018-05-17T13:39:54.594Z,991.26
2018-05-17T13:41:01.292Z,991.22
2018-05-17T13:42:08.699Z,991.28
2018-05-17T13:43:15.039Z,991.29
2018-05-17T13:44:21.890Z,991.22
2018-05-17T13:45:28.602Z,991.28
2018-05-17T13:46:35.355Z,991.25
2018-05-17T13:47:42.157Z,991.28
2018-05-17T13:48:48.807Z,991.19
2018-05-17T13:49:55.564Z,991.23
2018-05-17T13:51:02.279Z,991.22
2018-05-17T13:52:09.013Z,991.17
2018-05-17T13:53:15.722Z,991.20